createdAt,value
2022-11-29T00:00:53.045Z,3.80
2022-11-29T00:02:26.639Z,3.81
2022-11-29T00:04:00.387Z,3.82
2022-11-29T00:05:35.671Z,3.83
2022-11-29T00:07:09.089Z,3.73
2022-11-29T00:08:45.829Z,3.86
2022-11-29T00:10:19.595Z,3.83
2022-11-29T00:12:12.548Z,3.83
2022-11-29T00:13:48.282Z,3.75
2022-11-29T00:15:23.166Z,3.89
2022-11-29T00:16:59.442Z,3.87
2022-11-29T00:18:33.312Z,3.90
2022-11-29T00:20:17.989Z,3.87
2022-11-29T00:21:51.404Z,3.89
2022-11-29T00:23:24.787Z,3.87
2022-11-29T00:24:58.180Z,3.87
2022-11-29T00:26:31.663Z,3.89
2022-11-29T00:28:05.842Z,3.93
2022-11-29T00:29:39.162Z,3.98
2022-11-29T00:31:24.176Z,3.99
2022-11-29T00:32:58.830Z,3.95
2022-11-29T00:34:32.143Z,4.05
2022-11-29T00:36:04.790Z,3.98
2022-11-29T00:37:38.806Z,4.02
2022-11-29T00:39:13.129Z,4.03
2022-11-29T00:40:51.418Z,4.03
2022-11-29T00:42:25.679Z,4.01
2022-11-29T00:43:58.977Z,4.05
2022-11-29T00:45:34.064Z,4.05
2022-11-29T00:47:09.090Z,4.08
2022-11-29T00:48:42.521Z,4.09
2022-11-29T00:50:16.463Z,4.07
2022-11-29T00:51:49.810Z,4.03
2022-11-29T00:53:23.366Z,4.04
2022-11-29T00:54:56.900Z,4.00
2022-11-29T00:56:30.478Z,4.07
2022-11-29T00:58:03.696Z,4.04
2022-11-29T00:59:36.927Z,3.89
2022-11-29T01:01:11.842Z,3.96
2022-11-29T01:02:46.559Z,3.96
2022-11-29T01:04:20.244Z,3.92
2022-11-29T01:05:53.825Z,3.92
2022-11-29T01:07:28.228Z,3.91
2022-11-29T01:09:01.709Z,3.89
2022-11-29T01:10:34.929Z,3.90
2022-11-29T01:12:09.064Z,3.91
2022-11-29T01:13:43.715Z,3.91
2022-11-29T01:15:18.584Z,3.92
2022-11-29T01:16:51.960Z,3.89
2022-11-29T01:18:28.222Z,3.84
2022-11-29T01:20:02.072Z,3.78
2022-11-29T01:21:36.069Z,3.70
2022-11-29T01:23:12.511Z,3.73
2022-11-29T01:24:46.043Z,3.72
2022-11-29T01:26:22.775Z,3.74
2022-11-29T01:27:56.709Z,3.76
2022-11-29T01:29:29.955Z,3.81
2022-11-29T01:31:07.141Z,3.71
2022-11-29T01:32:42.660Z,3.81
2022-11-29T01:34:17.439Z,3.78
2022-11-29T01:35:50.961Z,3.71
2022-11-29T01:37:25.866Z,3.73
2022-11-29T01:39:06.775Z,3.75
2022-11-29T01:40:42.106Z,3.76
2022-11-29T01:42:16.470Z,3.77
2022-11-29T01:43:56.379Z,3.79
2022-11-29T01:45:33.833Z,3.76
2022-11-29T01:47:08.896Z,3.80
2022-11-29T01:48:42.275Z,3.75
2022-11-29T01:50:22.097Z,3.75
2022-11-29T01:52:02.265Z,3.75
2022-11-29T01:53:35.658Z,3.71
2022-11-29T01:55:10.535Z,3.65
2022-11-29T01:56:49.052Z,3.70
2022-11-29T01:58:23.298Z,3.71
2022-11-29T02:00:03.255Z,3.69
2022-11-29T02:01:47.746Z,3.73
2022-11-29T02:03:20.114Z,3.72
2022-11-29T02:04:56.437Z,3.72
2022-11-29T02:06:33.405Z,3.72
2022-11-29T02:08:08.254Z,3.74
2022-11-29T02:09:40.706Z,3.77
2022-11-29T02:11:31.067Z,3.74
2022-11-29T02:13:21.615Z,3.76
2022-11-29T02:15:10.014Z,3.72
2022-11-29T02:16:56.671Z,3.74
2022-11-29T02:18:42.288Z,3.66
2022-11-29T02:20:48.042Z,3.75
2022-11-29T02:22:30.392Z,3.71
2022-11-29T02:24:23.558Z,3.72
2022-11-29T02:26:12.561Z,3.71
2022-11-29T02:28:34.917Z,3.71
2022-11-29T02:30:21.236Z,3.70
2022-11-29T02:32:30.022Z,3.70
2022-11-29T02:34:21.020Z,3.68
2022-11-29T02:36:32.240Z,3.68
2022-11-29T02:38:23.103Z,3.69
2022-11-29T02:40:24.579Z,3.67
2022-11-29T02:42:16.621Z,3.62
2022-11-29T02:44:22.099Z,3.66
2022-11-29T02:46:10.116Z,3.67
2022-11-29T02:47:57.020Z,3.70
2022-11-29T02:49:56.212Z,3.64
2022-11-29T02:51:37.988Z,3.61
2022-11-29T02:53:20.492Z,3.60
2022-11-29T02:54:59.622Z,3.56
2022-11-29T02:56:41.127Z,3.55
2022-11-29T02:58:26.729Z,3.51
2022-11-29T03:00:07.267Z,3.39
2022-11-29T03:01:51.498Z,3.41
2022-11-29T03:03:32.933Z,3.34
2022-11-29T03:05:19.833Z,3.23
2022-11-29T03:07:02.223Z,3.19
2022-11-29T03:08:42.210Z,3.18
2022-11-29T03:10:30.625Z,3.16
2022-11-29T03:12:16.751Z,3.14
2022-11-29T03:13:57.242Z,3.13
2022-11-29T03:15:34.040Z,3.15
2022-11-29T03:17:22.355Z,3.19
2022-11-29T03:19:06.843Z,3.20
2022-11-29T03:20:54.314Z,3.17
2022-11-29T03:22:36.388Z,3.16
2022-11-29T03:24:17.071Z,3.15
2022-11-29T03:25:58.552Z,3.15
2022-11-29T03:27:39.756Z,3.17
2022-11-29T03:29:23.044Z,3.18
2022-11-29T03:31:05.364Z,3.23
2022-11-29T03:32:49.818Z,3.19
2022-11-29T03:34:31.003Z,3.18
2022-11-29T03:36:14.165Z,3.10
2022-11-29T03:37:55.926Z,3.11
2022-11-29T03:39:36.941Z,3.11
2022-11-29T03:41:26.456Z,3.15
2022-11-29T03:43:08.034Z,3.11
2022-11-29T03:44:50.541Z,3.08
2022-11-29T03:46:33.278Z,3.05
2022-11-29T03:48:11.093Z,3.02
2022-11-29T03:49:50.114Z,2.94
2022-11-29T03:51:30.370Z,3.03
2022-11-29T03:53:12.694Z,3.02
2022-11-29T03:54:57.777Z,3.00
2022-11-29T03:56:34.608Z,2.91
2022-11-29T03:58:22.255Z,2.94
2022-11-29T04:00:05.099Z,3.00
2022-11-29T04:02:18.063Z,3.02
2022-11-29T04:04:14.494Z,3.05
2022-11-29T04:06:25.339Z,3.04
2022-11-29T04:08:17.145Z,2.98
2022-11-29T04:10:18.147Z,3.00
2022-11-29T04:12:28.563Z,2.98
2022-11-29T04:14:42.619Z,2.94
2022-11-29T04:16:50.706Z,2.95
2022-11-29T04:19:05.937Z,2.92
2022-11-29T04:21:06.045Z,2.92
2022-11-29T04:23:06.601Z,2.92
2022-11-29T04:25:06.404Z,2.94
2022-11-29T04:27:23.083Z,2.87
2022-11-29T04:29:15.112Z,2.95
2022-11-29T04:31:00.835Z,2.95
2022-11-29T04:33:08.245Z,2.89
2022-11-29T04:35:00.822Z,2.92
2022-11-29T04:37:01.661Z,2.93
2022-11-29T04:38:58.561Z,2.90
2022-11-29T04:41:06.512Z,2.88
2022-11-29T04:43:15.563Z,2.86
2022-11-29T04:45:08.078Z,2.91
2022-11-29T04:46:56.685Z,2.92
2022-11-29T04:48:48.405Z,2.96
2022-11-29T04:50:49.273Z,3.01
2022-11-29T04:52:38.011Z,3.05
2022-11-29T04:54:25.900Z,3.06
2022-11-29T04:56:12.788Z,3.05
2022-11-29T04:57:53.115Z,2.99
2022-11-29T04:59:33.235Z,2.87
2022-11-29T05:01:15.816Z,2.79
2022-11-29T05:02:56.516Z,2.82
2022-11-29T05:04:37.704Z,2.78
2022-11-29T05:06:24.905Z,2.79
2022-11-29T05:08:17.523Z,2.77
2022-11-29T05:10:00.275Z,2.79
2022-11-29T05:11:56.014Z,2.76
2022-11-29T05:13:40.279Z,2.72
2022-11-29T05:15:34.207Z,2.68
2022-11-29T05:17:25.947Z,2.67
2022-11-29T05:19:12.822Z,2.64
2022-11-29T05:20:50.719Z,2.57
2022-11-29T05:22:32.078Z,2.45
2022-11-29T05:24:18.537Z,2.50
2022-11-29T05:25:59.654Z,2.55
2022-11-29T05:27:44.637Z,2.58
2022-11-29T05:29:27.952Z,2.57
2022-11-29T05:31:26.239Z,2.65
2022-11-29T05:33:10.911Z,2.66
2022-11-29T05:35:04.508Z,2.68
2022-11-29T05:36:44.887Z,2.73
2022-11-29T05:38:40.353Z,2.73
2022-11-29T05:40:40.591Z,2.76
2022-11-29T05:42:37.124Z,2.77
2022-11-29T05:44:17.094Z,2.76
2022-11-29T05:45:55.835Z,2.77
2022-11-29T05:47:38.020Z,2.84
2022-11-29T05:49:23.387Z,2.86
2022-11-29T05:51:07.069Z,2.89
2022-11-29T05:52:51.899Z,2.91
2022-11-29T05:54:29.610Z,2.94
2022-11-29T05:56:10.501Z,2.95
2022-11-29T05:57:53.872Z,2.96
2022-11-29T05:59:31.331Z,2.96
2022-11-29T06:01:19.732Z,2.93
2022-11-29T06:03:00.938Z,2.89
2022-11-29T06:04:58.136Z,2.85
2022-11-29T06:06:41.318Z,2.82
2022-11-29T06:08:20.849Z,2.82
2022-11-29T06:10:02.144Z,2.82
2022-11-29T06:11:41.852Z,2.82
2022-11-29T06:13:22.701Z,2.83
2022-11-29T06:15:30.221Z,2.80
2022-11-29T06:17:39.196Z,2.78
2022-11-29T06:19:30.525Z,2.80
2022-11-29T06:21:17.620Z,2.83
2022-11-29T06:23:18.688Z,2.82
2022-11-29T06:25:09.490Z,2.78
2022-11-29T06:26:58.318Z,2.77
2022-11-29T06:28:45.803Z,2.81
2022-11-29T06:30:25.201Z,2.85
2022-11-29T06:32:09.011Z,2.87
2022-11-29T06:33:48.615Z,2.93
2022-11-29T06:35:37.062Z,2.98
2022-11-29T06:37:18.535Z,2.99
2022-11-29T06:38:52.052Z,2.88
2022-11-29T06:40:29.074Z,3.02
2022-11-29T06:42:02.285Z,2.97
2022-11-29T06:43:37.704Z,2.98
2022-11-29T06:45:14.648Z,2.93
2022-11-29T06:46:53.436Z,2.87
2022-11-29T06:48:29.008Z,2.79
2022-11-29T06:50:25.727Z,2.91
2022-11-29T06:52:10.060Z,2.91
2022-11-29T06:53:50.399Z,2.89
2022-11-29T06:55:29.749Z,2.89
2022-11-29T06:57:14.379Z,2.86
2022-11-29T06:58:57.721Z,2.82
2022-11-29T07:00:41.742Z,2.78
2022-11-29T07:02:35.598Z,2.75
2022-11-29T07:04:22.139Z,2.72
2022-11-29T07:05:56.129Z,2.72
2022-11-29T07:07:30.217Z,2.69
2022-11-29T07:09:13.314Z,2.63
2022-11-29T07:10:50.222Z,2.69
2022-11-29T07:12:24.775Z,2.73
2022-11-29T07:13:58.541Z,2.77
2022-11-29T07:15:34.336Z,2.77
2022-11-29T07:17:18.363Z,2.80
2022-11-29T07:19:02.366Z,2.86
2022-11-29T07:20:42.465Z,2.91
2022-11-29T07:22:33.499Z,2.90
2022-11-29T07:24:17.893Z,2.97
2022-11-29T07:26:06.340Z,2.95
2022-11-29T07:27:45.992Z,2.92
2022-11-29T07:29:30.824Z,2.92
2022-11-29T07:31:13.067Z,2.97
2022-11-29T07:33:00.610Z,2.96
2022-11-29T07:34:45.286Z,2.97
2022-11-29T07:36:27.258Z,3.01
2022-11-29T07:38:11.506Z,3.02
2022-11-29T07:39:54.154Z,3.06
2022-11-29T07:41:35.870Z,3.11
2022-11-29T07:43:31.506Z,3.06
2022-11-29T07:45:15.418Z,3.18
2022-11-29T07:46:49.057Z,3.22
2022-11-29T07:48:23.777Z,3.25
2022-11-29T07:49:58.376Z,3.27
2022-11-29T07:51:33.427Z,3.31
2022-11-29T07:53:06.786Z,3.32
2022-11-29T07:54:41.013Z,3.28
2022-11-29T07:56:16.326Z,3.22
2022-11-29T07:57:50.166Z,3.25
2022-11-29T07:59:27.623Z,3.29
2022-11-29T08:01:01.061Z,3.28
2022-11-29T08:02:36.754Z,3.33
2022-11-29T08:04:10.799Z,3.33
2022-11-29T08:05:49.065Z,3.31
2022-11-29T08:07:23.399Z,3.41
2022-11-29T08:08:58.615Z,3.47
2022-11-29T08:10:32.293Z,3.51
2022-11-29T08:12:06.060Z,3.53
2022-11-29T08:13:39.307Z,3.52
2022-11-29T08:15:14.114Z,3.50
2022-11-29T08:16:47.825Z,3.51
2022-11-29T08:18:24.713Z,3.46
2022-11-29T08:20:02.573Z,3.39
2022-11-29T08:21:38.641Z,3.34
2022-11-29T08:23:13.862Z,3.30
2022-11-29T08:24:48.650Z,3.30
2022-11-29T08:26:28.148Z,3.22
2022-11-29T08:28:06.067Z,3.23
2022-11-29T08:29:39.544Z,3.27
2022-11-29T08:31:14.253Z,3.31
2022-11-29T08:32:51.395Z,3.31
2022-11-29T08:34:26.519Z,3.36
2022-11-29T08:36:07.219Z,3.43
2022-11-29T08:37:45.922Z,3.48
2022-11-29T08:39:19.251Z,3.42
2022-11-29T08:40:53.457Z,3.47
2022-11-29T08:42:26.965Z,3.54
2022-11-29T08:44:01.188Z,3.58
2022-11-29T08:45:34.414Z,3.59
2022-11-29T08:47:25.182Z,3.62
2022-11-29T08:48:58.673Z,3.65
2022-11-29T08:50:31.918Z,3.64
2022-11-29T08:52:22.869Z,3.71
2022-11-29T08:53:57.447Z,3.74
2022-11-29T08:55:34.480Z,3.76
2022-11-29T08:57:38.744Z,3.81
2022-11-29T08:59:03.014Z,3.78
2022-11-29T09:00:36.898Z,3.75
2022-11-29T09:02:10.437Z,3.72
2022-11-29T09:04:03.685Z,3.67
2022-11-29T09:05:39.767Z,3.66
2022-11-29T09:07:13.624Z,3.64
2022-11-29T09:08:47.321Z,3.58
2022-11-29T09:10:22.101Z,3.63
2022-11-29T09:11:56.759Z,3.58
2022-11-29T09:13:29.894Z,3.62
2022-11-29T09:15:03.223Z,3.66
2022-11-29T09:16:39.129Z,3.73
2022-11-29T09:18:13.241Z,3.78
2022-11-29T09:19:47.307Z,3.70
2022-11-29T09:21:21.157Z,3.69
2022-11-29T09:22:54.717Z,3.64
2022-11-29T09:24:29.204Z,3.62
2022-11-29T09:26:03.870Z,3.61
2022-11-29T09:27:37.112Z,3.64
2022-11-29T09:29:12.322Z,3.60
2022-11-29T09:30:47.193Z,3.59
2022-11-29T09:32:20.415Z,3.57
2022-11-29T09:33:53.578Z,3.54
2022-11-29T09:35:27.736Z,3.55
2022-11-29T09:37:01.817Z,3.52
2022-11-29T09:38:35.790Z,3.52
2022-11-29T09:40:17.952Z,3.46
2022-11-29T09:42:09.894Z,3.47
2022-11-29T09:43:52.544Z,3.42
2022-11-29T09:45:31.655Z,3.35
2022-11-29T09:47:18.154Z,3.28
2022-11-29T09:49:07.821Z,3.22
2022-11-29T09:50:49.201Z,3.23
2022-11-29T09:52:35.275Z,3.26
2022-11-29T09:54:24.557Z,3.19
2022-11-29T09:56:12.543Z,3.13
2022-11-29T09:57:50.293Z,3.07
2022-11-29T09:59:29.129Z,3.05
2022-11-29T10:01:07.875Z,3.02
2022-11-29T10:02:47.666Z,3.04
2022-11-29T10:04:27.255Z,3.06
2022-11-29T10:06:05.038Z,3.11
2022-11-29T10:07:44.916Z,3.16
2022-11-29T10:09:24.400Z,3.28
2022-11-29T10:11:07.289Z,3.36
2022-11-29T10:12:46.310Z,3.40
2022-11-29T10:14:26.150Z,3.46
2022-11-29T10:16:06.709Z,3.51
2022-11-29T10:17:44.908Z,3.53
2022-11-29T10:19:24.934Z,3.59
2022-11-29T10:21:01.198Z,3.63
2022-11-29T10:22:43.952Z,3.65
2022-11-29T10:24:22.339Z,3.64
2022-11-29T10:26:01.257Z,3.65
2022-11-29T10:27:39.222Z,3.72
2022-11-29T10:29:16.999Z,3.77
2022-11-29T10:30:55.220Z,3.80
2022-11-29T10:32:33.254Z,3.87
2022-11-29T10:34:14.561Z,3.90
2022-11-29T10:35:52.023Z,3.89
2022-11-29T10:37:26.390Z,3.88
2022-11-29T10:39:09.966Z,3.84
2022-11-29T10:40:50.578Z,3.83
2022-11-29T10:42:44.047Z,3.75
2022-11-29T10:44:18.296Z,3.68
2022-11-29T10:45:56.234Z,3.62
2022-11-29T10:47:30.846Z,3.63
2022-11-29T10:49:07.519Z,3.69
2022-11-29T10:50:44.136Z,3.71
2022-11-29T10:52:20.789Z,3.75
2022-11-29T10:53:56.407Z,3.75
2022-11-29T10:55:36.059Z,3.77
2022-11-29T10:57:15.802Z,3.78
2022-11-29T10:58:57.095Z,3.79
2022-11-29T11:00:30.382Z,3.78
2022-11-29T11:02:06.930Z,3.78
2022-11-29T11:03:43.543Z,3.70
2022-11-29T11:05:19.637Z,3.69
2022-11-29T11:06:56.420Z,3.66
2022-11-29T11:08:30.401Z,3.62
2022-11-29T11:10:06.576Z,3.59
2022-11-29T11:11:41.612Z,3.62
2022-11-29T11:13:22.826Z,3.61
2022-11-29T11:15:17.039Z,3.71
2022-11-29T11:16:51.727Z,3.75
2022-11-29T11:18:30.935Z,3.76
2022-11-29T11:20:08.453Z,3.76
2022-11-29T11:21:42.543Z,3.77
2022-11-29T11:23:26.742Z,3.82
2022-11-29T11:25:02.745Z,3.82
2022-11-29T11:26:44.549Z,3.83
2022-11-29T11:28:22.458Z,3.83
2022-11-29T11:29:55.716Z,3.83
2022-11-29T11:31:35.403Z,3.78
2022-11-29T11:33:10.316Z,3.74
2022-11-29T11:34:52.878Z,3.73
2022-11-29T11:36:28.444Z,3.70
2022-11-29T11:38:01.664Z,3.71
2022-11-29T11:39:35.994Z,3.72
2022-11-29T11:41:19.633Z,3.74
2022-11-29T11:42:52.095Z,3.76
2022-11-29T11:44:46.870Z,3.76
2022-11-29T11:46:21.584Z,3.72
2022-11-29T11:47:59.219Z,3.76
2022-11-29T11:49:38.405Z,3.78
2022-11-29T11:51:23.817Z,3.79
2022-11-29T11:52:59.897Z,3.80
2022-11-29T11:54:33.756Z,3.79
2022-11-29T11:56:10.226Z,3.80
2022-11-29T11:57:43.822Z,3.80
2022-11-29T11:59:21.812Z,3.79
2022-11-29T12:01:05.523Z,3.73
2022-11-29T12:02:41.587Z,3.64
2022-11-29T12:04:19.074Z,3.73
2022-11-29T12:05:55.211Z,3.75
2022-11-29T12:08:06.017Z,3.73
2022-11-29T12:09:40.681Z,3.80
2022-11-29T12:11:18.316Z,3.80
2022-11-29T12:12:53.406Z,3.80
2022-11-29T12:14:35.318Z,3.80
2022-11-29T12:16:20.225Z,3.76
2022-11-29T12:18:01.625Z,3.82
2022-11-29T12:19:44.576Z,3.84
2022-11-29T12:21:21.615Z,3.88
2022-11-29T12:23:20.933Z,3.94
2022-11-29T12:25:01.283Z,3.94
2022-11-29T12:28:35.108Z,3.94
2022-11-29T12:30:14.369Z,3.94
2022-11-29T12:32:00.424Z,3.95
2022-11-29T12:33:44.768Z,3.87
2022-11-29T12:35:49.303Z,3.83
2022-11-29T12:37:27.217Z,3.80
2022-11-29T12:39:12.326Z,3.85
2022-11-29T12:40:54.308Z,3.86
2022-11-29T12:42:42.594Z,3.90
2022-11-29T12:44:30.866Z,3.95
2022-11-29T12:46:14.113Z,3.98
2022-11-29T12:47:59.864Z,4.00
2022-11-29T12:49:41.384Z,4.05
2022-11-29T12:51:24.639Z,4.04
2022-11-29T12:53:12.049Z,4.05
2022-11-29T12:54:58.553Z,4.11
2022-11-29T12:56:40.131Z,4.07
2022-11-29T12:58:21.592Z,4.11
2022-11-29T13:00:05.106Z,4.12
2022-11-29T13:01:53.290Z,4.16
2022-11-29T13:03:32.740Z,4.15
2022-11-29T13:05:17.827Z,4.05
2022-11-29T13:06:57.415Z,4.10
2022-11-29T13:08:52.372Z,4.03
2022-11-29T13:10:39.538Z,3.98
2022-11-29T13:12:20.642Z,3.88
2022-11-29T13:14:34.631Z,3.89
2022-11-29T13:16:04.925Z,3.90
2022-11-29T13:17:47.419Z,3.93
2022-11-29T13:19:27.027Z,3.94
2022-11-29T13:21:06.665Z,3.88
2022-11-29T13:22:48.526Z,3.93
2022-11-29T13:24:30.575Z,3.92
2022-11-29T13:26:08.505Z,3.88
2022-11-29T13:27:46.373Z,3.87
2022-11-29T13:29:20.728Z,3.85
2022-11-29T13:31:03.372Z,3.84
2022-11-29T13:32:41.085Z,3.80
2022-11-29T13:34:20.739Z,3.77
2022-11-29T13:36:02.603Z,3.72
2022-11-29T13:37:43.805Z,3.66
2022-11-29T13:39:34.527Z,3.62
2022-11-29T13:41:18.681Z,3.54
2022-11-29T13:43:00.666Z,3.53
2022-11-29T13:44:41.135Z,3.53
2022-11-29T13:46:27.438Z,3.52
2022-11-29T13:48:27.618Z,3.50
2022-11-29T13:50:03.719Z,3.42
2022-11-29T13:51:38.630Z,3.48
2022-11-29T13:53:17.888Z,3.46
2022-11-29T13:55:11.591Z,3.46
2022-11-29T13:56:48.351Z,3.45
2022-11-29T13:58:35.332Z,3.35
2022-11-29T14:00:33.528Z,3.35
2022-11-29T14:02:28.831Z,3.32
2022-11-29T14:04:07.589Z,3.34
2022-11-29T14:05:42.317Z,3.29
2022-11-29T14:07:18.876Z,3.34
2022-11-29T14:09:25.711Z,3.36
2022-11-29T14:11:03.306Z,3.32
2022-11-29T14:12:42.848Z,3.28
2022-11-29T14:14:24.044Z,3.31
2022-11-29T14:16:00.287Z,3.29
2022-11-29T14:17:47.614Z,3.25
2022-11-29T14:19:32.811Z,3.24
2022-11-29T14:21:07.808Z,3.23
2022-11-29T14:23:18.890Z,3.20
2022-11-29T14:25:21.744Z,3.21
2022-11-29T14:27:19.776Z,3.21
2022-11-29T14:28:54.952Z,3.16
2022-11-29T14:30:47.442Z,3.18
2022-11-29T14:32:23.742Z,3.19
2022-11-29T14:34:06.421Z,3.07
2022-11-29T14:35:48.419Z,3.21
2022-11-29T14:37:41.389Z,3.18
2022-11-29T14:39:32.451Z,3.09
2022-11-29T14:41:17.670Z,3.14
2022-11-29T14:42:53.493Z,3.14
2022-11-29T14:44:29.482Z,3.17
2022-11-29T14:46:10.976Z,3.13
2022-11-29T14:47:50.133Z,3.15
2022-11-29T14:49:27.231Z,3.11
2022-11-29T14:51:10.180Z,2.91
2022-11-29T14:52:52.740Z,2.99
2022-11-29T14:54:26.167Z,2.97
2022-11-29T14:56:33.002Z,2.99
2022-11-29T14:58:19.502Z,3.01
2022-11-29T14:59:55.968Z,3.03
2022-11-29T15:01:29.340Z,3.03
2022-11-29T15:03:06.870Z,3.04
2022-11-29T15:04:40.812Z,3.03
2022-11-29T15:06:27.644Z,3.01
2022-11-29T15:08:09.740Z,3.07
2022-11-29T15:09:44.398Z,3.07
2022-11-29T15:11:28.404Z,3.08
2022-11-29T15:13:07.740Z,3.08
2022-11-29T15:14:51.198Z,2.99
2022-11-29T15:16:46.147Z,3.00
2022-11-29T15:18:31.593Z,3.01
2022-11-29T15:20:27.435Z,2.99
2022-11-29T15:22:10.398Z,2.94
2022-11-29T15:23:45.094Z,2.97
2022-11-29T15:25:21.997Z,3.00
2022-11-29T15:26:59.474Z,2.99
2022-11-29T15:28:33.058Z,2.97
2022-11-29T15:30:20.515Z,2.99
2022-11-29T15:31:57.957Z,2.99
2022-11-29T15:33:32.130Z,2.89
2022-11-29T15:35:06.829Z,2.86
2022-11-29T15:36:44.620Z,2.59
2022-11-29T15:38:20.909Z,2.73
2022-11-29T15:40:04.936Z,2.75
2022-11-29T15:41:38.925Z,2.76
2022-11-29T15:43:19.589Z,2.74
2022-11-29T15:44:54.574Z,2.71
2022-11-29T15:46:29.788Z,2.67
2022-11-29T15:48:20.887Z,2.65
2022-11-29T15:49:55.604Z,2.62
2022-11-29T15:51:32.588Z,2.61
2022-11-29T15:53:11.945Z,2.55
2022-11-29T15:54:50.338Z,2.59
2022-11-29T15:56:32.033Z,2.59
2022-11-29T15:58:09.012Z,2.57
2022-11-29T15:59:45.388Z,2.53
2022-11-29T16:01:22.302Z,2.44
2022-11-29T16:02:59.772Z,2.55
2022-11-29T16:04:39.906Z,2.58
2022-11-29T16:06:30.073Z,2.59
2022-11-29T16:08:09.052Z,2.64
2022-11-29T16:09:47.098Z,2.64
2022-11-29T16:11:24.131Z,2.67
2022-11-29T16:13:00.174Z,2.68
2022-11-29T16:14:33.968Z,2.68
2022-11-29T16:16:16.473Z,2.70
2022-11-29T16:17:50.245Z,2.70
2022-11-29T16:19:32.928Z,2.65
2022-11-29T16:21:09.464Z,2.69
2022-11-29T16:22:44.206Z,2.68
2022-11-29T16:24:22.465Z,2.68
2022-11-29T16:26:02.472Z,2.66
2022-11-29T16:27:37.551Z,2.72
2022-11-29T16:29:24.918Z,2.70
2022-11-29T16:31:05.029Z,2.75
2022-11-29T16:32:43.639Z,2.73
2022-11-29T16:34:25.134Z,2.76
2022-11-29T16:36:08.322Z,2.70
2022-11-29T16:37:46.430Z,2.73
2022-11-29T16:39:25.058Z,2.73
2022-11-29T16:41:08.114Z,2.74
2022-11-29T16:42:44.508Z,2.74
2022-11-29T16:45:02.505Z,2.74
2022-11-29T16:46:41.288Z,2.72
2022-11-29T16:48:31.651Z,2.77
2022-11-29T16:50:14.661Z,2.76
2022-11-29T16:51:53.524Z,2.74
2022-11-29T16:53:38.892Z,2.76
2022-11-29T16:55:17.974Z,2.72
2022-11-29T16:56:54.288Z,2.74
2022-11-29T16:58:31.894Z,2.78
2022-11-29T17:00:13.626Z,2.79
2022-11-29T17:01:47.912Z,2.78
2022-11-29T17:03:25.789Z,2.78
2022-11-29T17:04:59.033Z,2.77
2022-11-29T17:06:32.926Z,2.75
2022-11-29T17:08:09.801Z,2.75
2022-11-29T17:09:43.628Z,2.78
2022-11-29T17:11:17.261Z,2.78
2022-11-29T17:12:51.772Z,2.77
2022-11-29T17:14:25.092Z,2.75
2022-11-29T17:15:58.259Z,2.62
2022-11-29T17:17:31.727Z,2.70
2022-11-29T17:19:07.479Z,2.71
2022-11-29T17:20:40.725Z,2.70
2022-11-29T17:22:15.371Z,2.71
2022-11-29T17:23:51.517Z,2.71
2022-11-29T17:25:26.526Z,2.67
2022-11-29T17:27:00.760Z,2.68
2022-11-29T17:28:35.815Z,2.67
2022-11-29T17:30:11.407Z,2.61
2022-11-29T17:31:45.388Z,2.55
2022-11-29T17:33:19.190Z,2.50
2022-11-29T17:34:52.469Z,2.45
2022-11-29T17:36:25.621Z,2.38
2022-11-29T17:38:01.895Z,2.35
2022-11-29T17:39:36.535Z,2.38
2022-11-29T17:41:10.855Z,2.38
2022-11-29T17:42:45.853Z,2.40
2022-11-29T17:44:19.378Z,2.42
2022-11-29T17:45:52.731Z,2.42
2022-11-29T17:47:26.997Z,2.43
2022-11-29T17:49:01.360Z,2.46
2022-11-29T17:50:48.631Z,2.49
2022-11-29T17:52:21.843Z,2.51
2022-11-29T17:53:56.058Z,2.48
2022-11-29T17:55:30.777Z,2.51
2022-11-29T17:57:06.085Z,2.51
2022-11-29T17:58:59.882Z,2.50
2022-11-29T18:00:50.670Z,2.49
2022-11-29T18:02:25.623Z,2.37
2022-11-29T18:04:04.154Z,2.47
2022-11-29T18:05:49.689Z,2.52
2022-11-29T18:07:34.234Z,2.55
2022-11-29T18:09:11.822Z,2.55
2022-11-29T18:10:48.953Z,2.55
2022-11-29T18:12:27.613Z,2.58
2022-11-29T18:14:05.064Z,2.59
2022-11-29T18:15:43.988Z,2.56
2022-11-29T18:17:18.334Z,2.54
2022-11-29T18:18:58.805Z,2.53
2022-11-29T18:20:36.030Z,2.51
2022-11-29T18:22:09.949Z,2.53
2022-11-29T18:23:44.261Z,2.50
2022-11-29T18:25:38.215Z,2.55
2022-11-29T18:27:13.319Z,2.58
2022-11-29T18:28:46.958Z,2.58
2022-11-29T18:30:21.500Z,2.59
2022-11-29T18:31:55.154Z,2.58
2022-11-29T18:33:31.977Z,2.58
2022-11-29T18:35:06.155Z,2.59
2022-11-29T18:36:43.776Z,2.61
2022-11-29T18:38:17.524Z,2.59
2022-11-29T18:39:50.809Z,2.58
2022-11-29T18:41:26.786Z,2.60
2022-11-29T18:43:04.263Z,2.60
2022-11-29T18:44:37.903Z,2.60
2022-11-29T18:46:13.353Z,2.56
2022-11-29T18:47:48.775Z,2.61
2022-11-29T18:49:22.460Z,2.64
2022-11-29T18:50:55.806Z,2.66
2022-11-29T18:52:29.420Z,2.70
2022-11-29T18:54:03.846Z,2.70
2022-11-29T18:55:37.064Z,2.67
2022-11-29T18:57:10.267Z,2.66
2022-11-29T18:58:46.912Z,2.67
2022-11-29T19:00:22.781Z,2.59
2022-11-29T19:01:56.777Z,2.68
2022-11-29T19:03:30.303Z,2.68
2022-11-29T19:05:04.140Z,2.67
2022-11-29T19:06:39.907Z,2.67
2022-11-29T19:08:13.433Z,2.68
2022-11-29T19:09:46.673Z,2.68
2022-11-29T19:11:22.967Z,2.70
2022-11-29T19:12:57.296Z,2.71
2022-11-29T19:14:32.492Z,2.77
2022-11-29T19:16:12.732Z,2.78
2022-11-29T19:17:46.643Z,2.78
2022-11-29T19:19:22.547Z,2.80
2022-11-29T19:21:05.584Z,2.78
2022-11-29T19:22:41.963Z,2.84
2022-11-29T19:24:19.255Z,2.81
2022-11-29T19:25:55.552Z,2.86
2022-11-29T19:27:28.726Z,2.86
2022-11-29T19:29:02.973Z,2.84
2022-11-29T19:30:38.116Z,2.83
2022-11-29T19:32:11.409Z,2.84
2022-11-29T19:33:46.430Z,2.85
2022-11-29T19:35:19.795Z,2.83
2022-11-29T19:36:54.005Z,2.82
2022-11-29T19:38:27.320Z,2.70
2022-11-29T19:40:01.724Z,2.76
2022-11-29T19:41:37.176Z,2.80
2022-11-29T19:43:11.168Z,2.78
2022-11-29T19:45:15.259Z,2.78
2022-11-29T19:46:42.426Z,2.82
2022-11-29T19:48:20.816Z,2.79
2022-11-29T19:49:57.855Z,2.83
2022-11-29T19:51:35.557Z,2.81
2022-11-29T19:53:10.383Z,2.81
2022-11-29T19:54:44.045Z,2.75
2022-11-29T19:56:20.436Z,2.71
2022-11-29T19:57:58.369Z,2.71
2022-11-29T19:59:33.431Z,2.72
2022-11-29T20:01:07.865Z,2.72
2022-11-29T20:02:42.791Z,2.77
2022-11-29T20:04:20.509Z,2.75
2022-11-29T20:05:57.129Z,2.77
2022-11-29T20:07:30.439Z,2.79
2022-11-29T20:09:04.311Z,2.82
2022-11-29T20:10:37.901Z,2.83
2022-11-29T20:12:17.939Z,2.84
2022-11-29T20:13:59.625Z,2.85
2022-11-29T20:15:36.278Z,2.82
2022-11-29T20:17:09.657Z,2.84
2022-11-29T20:18:50.610Z,2.82
2022-11-29T20:20:25.225Z,2.79
2022-11-29T20:21:58.636Z,2.75
2022-11-29T20:23:32.330Z,2.69
2022-11-29T20:25:07.875Z,2.72
2022-11-29T20:26:43.683Z,2.63
2022-11-29T20:28:18.693Z,2.63
2022-11-29T20:29:52.123Z,2.62
2022-11-29T20:31:25.446Z,2.63
2022-11-29T20:32:59.844Z,2.61
2022-11-29T20:34:38.863Z,2.61
2022-11-29T20:36:33.816Z,2.58
2022-11-29T20:38:22.501Z,2.58
2022-11-29T20:40:01.862Z,2.59
2022-11-29T20:41:43.075Z,2.54
2022-11-29T20:43:20.164Z,2.60
2022-11-29T20:44:56.161Z,2.61
2022-11-29T20:46:31.138Z,2.64
2022-11-29T20:48:13.211Z,2.65
2022-11-29T20:49:48.681Z,2.62
2022-11-29T20:51:27.664Z,2.69
2022-11-29T20:53:20.346Z,2.71
2022-11-29T20:55:09.253Z,2.66
2022-11-29T20:56:46.561Z,2.79
2022-11-29T20:58:45.349Z,2.69
2022-11-29T21:00:20.944Z,2.86
2022-11-29T21:01:57.008Z,2.88
2022-11-29T21:03:43.361Z,2.89
2022-11-29T21:05:20.676Z,2.91
2022-11-29T21:06:56.986Z,2.92
2022-11-29T21:08:31.267Z,2.92
2022-11-29T21:10:05.343Z,2.90
2022-11-29T21:11:39.115Z,2.89
2022-11-29T21:13:18.115Z,2.86
2022-11-29T21:14:54.292Z,2.88
2022-11-29T21:16:31.073Z,2.90
2022-11-29T21:18:14.878Z,2.92
2022-11-29T21:19:53.455Z,2.93
2022-11-29T21:21:44.788Z,2.92
2022-11-29T21:23:27.729Z,2.61
2022-11-29T21:25:11.850Z,2.90
2022-11-29T21:26:58.778Z,2.89
2022-11-29T21:28:40.407Z,2.87
2022-11-29T21:30:23.777Z,2.88
2022-11-29T21:32:01.203Z,2.88
2022-11-29T21:33:38.770Z,2.86
2022-11-29T21:35:14.753Z,2.86
2022-11-29T21:36:59.463Z,2.85
2022-11-29T21:38:34.307Z,2.88
2022-11-29T21:40:11.042Z,2.89
2022-11-29T21:41:44.913Z,2.86
2022-11-29T21:43:18.204Z,2.77
2022-11-29T21:44:51.787Z,2.85
2022-11-29T21:46:25.076Z,2.86
2022-11-29T21:48:01.881Z,2.87
2022-11-29T21:49:36.335Z,2.88
2022-11-29T21:51:12.827Z,2.88
2022-11-29T21:52:47.731Z,2.87
2022-11-29T21:54:21.501Z,2.87
2022-11-29T21:55:59.250Z,2.88
2022-11-29T21:57:36.209Z,2.90
2022-11-29T21:59:09.598Z,2.91
2022-11-29T22:00:45.333Z,2.90
2022-11-29T22:02:18.968Z,2.92
2022-11-29T22:03:55.638Z,2.90
2022-11-29T22:05:30.399Z,2.95
2022-11-29T22:07:05.324Z,2.98
2022-11-29T22:08:43.248Z,3.01
2022-11-29T22:10:18.766Z,2.99
2022-11-29T22:11:52.784Z,2.99
2022-11-29T22:13:26.112Z,2.99
2022-11-29T22:15:00.870Z,2.99
2022-11-29T22:16:33.319Z,2.98
2022-11-29T22:18:06.896Z,2.96
2022-11-29T22:19:41.795Z,2.95
2022-11-29T22:21:15.610Z,2.93